sensor_id;sensor_type;location;lat;lon;timestamp;pressure;altitude;pressure_sealevel;temperature;humidity
71504;BME280;59323;50.874;7.028;2023-01-06T00:01:29;101693.22;;;9.67;100.00
71504;BME280;59323;50.874;7.028;2023-01-06T00:03:56;101681.47;;;9.63;100.00
71504;BME280;59323;50.874;7.028;2023-01-06T00:06:26;101683.59;;;9.58;100.00
71504;BME280;59323;50.874;7.028;2023-01-06T00:08:56;101685.63;;;9.61;100.00
71504;BME280;59323;50.874;7.028;2023-01-06T00:11:22;101697.41;;;9.65;100.00
71504;BME280;59323;50.874;7.028;2023-01-06T00:13:48;101682.91;;;9.61;100.00
71504;BME280;59323;50.874;7.028;2023-01-06T00:16:17;101683.59;;;9.58;100.00
71504;BME280;59323;50.874;7.028;2023-01-06T00:18:43;101692.66;;;9.62;100.00
71504;BME280;59323;50.874;7.028;2023-01-06T00:21:09;101691.19;;;9.64;100.00
71504;BME280;59323;50.874;7.028;2023-01-06T00:23:36;101691.19;;;9.64;100.00
71504;BME280;59323;50.874;7.028;2023-01-06T00:26:03;101681.66;;;9.58;100.00
71504;BME280;59323;50.874;7.028;2023-01-06T00:28:29;101684.38;;;9.58;100.00
71504;BME280;59323;50.874;7.028;2023-01-06T00:30:54;101692.31;;;9.63;100.00
71504;BME280;59323;50.874;7.028;2023-01-06T00:33:20;101692.66;;;9.62;100.00
71504;BME280;59323;50.874;7.028;2023-01-06T00:35:45;101672.06;;;9.61;100.00
71504;BME280;59323;50.874;7.028;2023-01-06T00:38:10;101682.91;;;9.61;100.00
71504;BME280;59323;50.874;7.028;2023-01-06T00:40:36;101683.72;;;9.61;100.00
71504;BME280;59323;50.874;7.028;2023-01-06T00:43:03;101687.34;;;9.65;100.00
71504;BME280;59323;50.874;7.028;2023-01-06T00:45:28;101691.06;;;9.61;100.00
71504;BME280;59323;50.874;7.028;2023-01-06T00:47:54;101677.81;;;9.59;100.00
71504;BME280;59323;50.874;7.028;2023-01-06T00:50:19;101675.91;;;9.60;100.00
71504;BME280;59323;50.874;7.028;2023-01-06T00:52:46;101677.81;;;9.59;100.00
71504;BME280;59323;50.874;7.028;2023-01-06T00:55:12;101670.03;;;9.58;100.00
71504;BME280;59323;50.874;7.028;2023-01-06T00:57:42;101675.22;;;9.63;100.00
71504;BME280;59323;50.874;7.028;2023-01-06T01:00:08;101660.41;;;9.60;100.00
71504;BME280;59323;50.874;7.028;2023-01-06T01:02:34;101665.06;;;9.60;100.00
71504;BME280;59323;50.874;7.028;2023-01-06T01:04:59;101663.34;;;9.55;100.00
71504;BME280;59323;50.874;7.028;2023-01-06T01:07:25;101674.31;;;9.59;100.00
71504;BME280;59323;50.874;7.028;2023-01-06T01:09:50;101659.50;;;9.56;100.00
71504;BME280;59323;50.874;7.028;2023-01-06T01:12:16;101665.84;;;9.60;100.00
71504;BME280;59323;50.874;7.028;2023-01-06T01:14:50;101657.38;;;9.62;100.00
71504;BME280;59323;50.874;7.028;2023-01-06T01:17:27;101667.31;;;9.58;100.00
71504;BME280;59323;50.874;7.028;2023-01-06T01:19:53;101675.13;;;9.59;100.00
71504;BME280;59323;50.874;7.028;2023-01-06T01:22:21;101667.97;;;9.54;100.00
71504;BME280;59323;50.874;7.028;2023-01-06T01:24:46;101658.13;;;9.50;100.00
71504;BME280;59323;50.874;7.028;2023-01-06T01:27:12;101659.72;;;9.51;100.00
71504;BME280;59323;50.874;7.028;2023-01-06T01:29:37;101661.28;;;9.52;100.00
71504;BME280;59323;50.874;7.028;2023-01-06T01:32:03;101665.94;;;9.51;100.00
71504;BME280;59323;50.874;7.028;2023-01-06T01:34:28;101662.09;;;9.52;100.00
71504;BME280;59323;50.874;7.028;2023-01-06T01:36:54;101663.88;;;9.48;100.00
71504;BME280;59323;50.874;7.028;2023-01-06T01:39:23;101658.47;;;9.48;100.00
71504;BME280;59323;50.874;7.028;2023-01-06T01:41:49;101663.56;;;9.50;100.00
71504;BME280;59323;50.874;7.028;2023-01-06T01:44:53;101660.03;;;9.49;100.00
71504;BME280;59323;50.874;7.028;2023-01-06T01:47:42;101649.41;;;9.44;100.00
71504;BME280;59323;50.874;7.028;2023-01-06T01:52:56;101653.25;;;9.43;100.00
71504;BME280;59323;50.874;7.028;2023-01-06T01:55:24;101661.50;;;9.47;100.00
71504;BME280;59323;50.874;7.028;2023-01-06T02:00:29;101652.31;;;9.39;100.00
71504;BME280;59323;50.874;7.028;2023-01-06T02:02:55;101661.25;;;9.40;100.00
71504;BME280;59323;50.874;7.028;2023-01-06T02:05:22;101656.63;;;9.40;100.00
71504;BME280;59323;50.874;7.028;2023-01-06T02:07:49;101652.66;;;9.38;100.00
71504;BME280;59323;50.874;7.028;2023-01-06T02:10:18;101664.44;;;9.42;100.00
71504;BME280;59323;50.874;7.028;2023-01-06T02:12:45;101663.38;;;9.34;100.00
71504;BME280;59323;50.874;7.028;2023-01-06T02:15:27;101666.69;;;9.40;100.00
71504;BME280;59323;50.874;7.028;2023-01-06T02:21:17;101658.88;;;9.38;100.00
71504;BME280;59323;50.874;7.028;2023-01-06T02:34:39;101633.34;;;9.39;100.00
71504;BME280;59323;50.874;7.028;2023-01-06T02:37:27;101636.06;;;9.39;100.00
71504;BME280;59323;50.874;7.028;2023-01-06T02:42:50;101637.19;;;9.38;100.00
71504;BME280;59323;50.874;7.028;2023-01-06T02:45:54;101627.00;;;9.35;100.00
71504;BME280;59323;50.874;7.028;2023-01-06T02:51:03;101619.66;;;9.36;100.00
71504;BME280;59323;50.874;7.028;2023-01-06T02:54:01;101601.66;;;9.31;100.00
71504;BME280;59323;50.874;7.028;2023-01-06T02:56:25;101602.13;;;9.33;100.00
71504;BME280;59323;50.874;7.028;2023-01-06T02:58:57;101593.19;;;9.33;100.00
71504;BME280;59323;50.874;7.028;2023-01-06T03:01:43;101602.78;;;9.30;100.00
71504;BME280;59323;50.874;7.028;2023-01-06T03:04:14;101602.34;;;9.28;100.00
71504;BME280;59323;50.874;7.028;2023-01-06T03:06:44;101601.22;;;9.29;100.00
71504;BME280;59323;50.874;7.028;2023-01-06T03:09:16;101598.38;;;9.26;100.00
71504;BME280;59323;50.874;7.028;2023-01-06T03:11:43;101601.41;;;9.24;100.00
71504;BME280;59323;50.874;7.028;2023-01-06T03:14:19;101596.78;;;9.25;100.00
71504;BME280;59323;50.874;7.028;2023-01-06T03:16:46;101590.78;;;9.19;100.00
71504;BME280;59323;50.874;7.028;2023-01-06T03:19:11;101592.03;;;9.21;100.00
71504;BME280;59323;50.874;7.028;2023-01-06T03:21:41;101590.91;;;9.23;100.00
71504;BME280;59323;50.874;7.028;2023-01-06T03:24:09;101594.06;;;9.25;100.00
71504;BME280;59323;50.874;7.028;2023-01-06T03:26:35;101605.72;;;9.25;100.00
71504;BME280;59323;50.874;7.028;2023-01-06T03:29:02;101593.63;;;9.23;100.00
71504;BME280;59323;50.874;7.028;2023-01-06T03:31:39;101598.25;;;9.22;100.00
71504;BME280;59323;50.874;7.028;2023-01-06T03:42:41;101593.63;;;9.23;100.00
71504;BME280;59323;50.874;7.028;2023-01-06T03:53:49;101587.44;;;9.34;100.00
71504;BME280;59323;50.874;7.028;2023-01-06T03:56:28;101579.75;;;9.36;100.00
71504;BME280;59323;50.874;7.028;2023-01-06T03:59:03;101575.00;;;9.33;100.00
71504;BME280;59323;50.874;7.028;2023-01-06T04:01:30;101587.22;;;9.39;100.00
71504;BME280;59323;50.874;7.028;2023-01-06T04:03:56;101582.72;;;9.43;100.00
71504;BME280;59323;50.874;7.028;2023-01-06T04:06:21;101590.72;;;9.40;100.00
71504;BME280;59323;50.874;7.028;2023-01-06T04:08:47;101589.34;;;9.34;100.00
71504;BME280;59323;50.874;7.028;2023-01-06T04:11:12;101585.19;;;9.36;100.00
71504;BME280;59323;50.874;7.028;2023-01-06T04:13:59;101576.03;;;9.41;99.87
71504;BME280;59323;50.874;7.028;2023-01-06T04:16:24;101567.78;;;9.37;100.00
71504;BME280;59323;50.874;7.028;2023-01-06T04:18:50;101561.22;;;9.38;100.00
71504;BME280;59323;50.874;7.028;2023-01-06T04:21:15;101566.44;;;9.43;100.00
71504;BME280;59323;50.874;7.028;2023-01-06T04:23:41;101561.22;;;9.38;99.92
71504;BME280;59323;50.874;7.028;2023-01-06T04:26:06;101560.88;;;9.40;99.87
71504;BME280;59323;50.874;7.028;2023-01-06T04:28:32;101557.38;;;9.39;98.57
71504;BME280;59323;50.874;7.028;2023-01-06T04:30:58;101552.88;;;9.43;98.04
71504;BME280;59323;50.874;7.028;2023-01-06T04:33:24;101548.78;;;9.37;97.75
71504;BME280;59323;50.874;7.028;2023-01-06T04:35:49;101556.72;;;9.42;97.45
71504;BME280;59323;50.874;7.028;2023-01-06T04:38:15;101559.41;;;9.42;97.80
71504;BME280;59323;50.874;7.028;2023-01-06T04:40:41;101556.03;;;9.45;97.70
71504;BME280;59323;50.874;7.028;2023-01-06T04:43:07;101550.16;;;9.43;97.81
71504;BME280;59323;50.874;7.028;2023-01-06T04:45:38;101542.03;;;9.43;97.21
71504;BME280;59323;50.874;7.028;2023-01-06T04:48:04;101545.06;;;9.42;97.11
71504;BME280;59323;50.874;7.028;2023-01-06T04:50:30;101543.94;;;9.43;96.43
71504;BME280;59323;50.874;7.028;2023-01-06T04:52:55;101537.59;;;9.39;96.64
71504;BME280;59323;50.874;7.028;2023-01-06T04:55:21;101537.25;;;9.40;96.30
71504;BME280;59323;50.874;7.028;2023-01-06T04:57:47;101533.09;;;9.43;95.93
71504;BME280;59323;50.874;7.028;2023-01-06T05:00:13;101531.16;;;9.43;95.79
71504;BME280;59323;50.874;7.028;2023-01-06T05:02:38;101540.56;;;9.46;95.20
71504;BME280;59323;50.874;7.028;2023-01-06T05:05:04;101525.28;;;9.41;94.64
71504;BME280;59323;50.874;7.028;2023-01-06T05:07:29;101534.00;;;9.47;94.74
71504;BME280;59323;50.874;7.028;2023-01-06T05:09:55;101525.06;;;9.46;94.64
71504;BME280;59323;50.874;7.028;2023-01-06T05:12:20;101522.03;;;9.48;94.17
71504;BME280;59323;50.874;7.028;2023-01-06T05:14:45;101517.25;;;9.45;93.70
71504;BME280;59323;50.874;7.028;2023-01-06T05:17:11;101519.19;;;9.44;93.58
71504;BME280;59323;50.874;7.028;2023-01-06T05:19:36;101520.09;;;9.48;92.63
71504;BME280;59323;50.874;7.028;2023-01-06T05:22:01;101518.50;;;9.47;92.41
71504;BME280;59323;50.874;7.028;2023-01-06T05:24:27;101529.94;;;9.53;91.84
71504;BME280;59323;50.874;7.028;2023-01-06T05:26:52;101517.38;;;9.48;91.51
71504;BME280;59323;50.874;7.028;2023-01-06T05:29:19;101520.66;;;9.54;91.51
71504;BME280;59323;50.874;7.028;2023-01-06T05:31:44;101524.16;;;9.54;91.18
71504;BME280;59323;50.874;7.028;2023-01-06T05:34:10;101511.41;;;9.55;91.03
71504;BME280;59323;50.874;7.028;2023-01-06T05:36:36;101524.75;;;9.60;90.94
71504;BME280;59323;50.874;7.028;2023-01-06T05:39:01;101522.69;;;9.57;90.96
71504;BME280;59323;50.874;7.028;2023-01-06T05:41:27;101518.19;;;9.61;90.36
71504;BME280;59323;50.874;7.028;2023-01-06T05:43:52;101522.16;;;9.64;89.54
71504;BME280;59323;50.874;7.028;2023-01-06T05:46:17;101528.13;;;9.69;89.07
71504;BME280;59323;50.874;7.028;2023-01-06T05:48:43;101512.66;;;9.70;88.44
71504;BME280;59323;50.874;7.028;2023-01-06T05:51:11;101519.31;;;9.72;89.05
71504;BME280;59323;50.874;7.028;2023-01-06T05:53:39;101521.13;;;9.68;88.65
71504;BME280;59323;50.874;7.028;2023-01-06T05:56:10;101521.59;;;9.70;88.34
71504;BME280;59323;50.874;7.028;2023-01-06T05:58:36;101527.00;;;9.70;88.63
71504;BME280;59323;50.874;7.028;2023-01-06T06:01:05;101522.72;;;9.69;88.45
71504;BME280;59323;50.874;7.028;2023-01-06T06:03:31;101523.50;;;9.70;88.72
71504;BME280;59323;50.874;7.028;2023-01-06T06:06:04;101525.44;;;9.69;87.62
71504;BME280;59323;50.874;7.028;2023-01-06T06:08:30;101530.19;;;9.72;87.52
71504;BME280;59323;50.874;7.028;2023-01-06T06:10:55;101518.41;;;9.68;88.25
71504;BME280;59323;50.874;7.028;2023-01-06T06:13:21;101531.66;;;9.70;87.57
71504;BME280;59323;50.874;7.028;2023-01-06T06:15:46;101532.56;;;9.74;87.05
71504;BME280;59323;50.874;7.028;2023-01-06T06:18:11;101528.25;;;9.73;87.77
71504;BME280;59323;50.874;7.028;2023-01-06T06:20:37;101528.13;;;9.69;88.29
71504;BME280;59323;50.874;7.028;2023-01-06T06:23:02;101525.75;;;9.68;88.22
71504;BME280;59323;50.874;7.028;2023-01-06T06:25:27;101532.66;;;9.65;88.01
71504;BME280;59323;50.874;7.028;2023-01-06T06:27:57;101535.59;;;9.72;88.80
71504;BME280;59323;50.874;7.028;2023-01-06T06:30:23;101529.59;;;9.67;88.12
71504;BME280;59323;50.874;7.028;2023-01-06T06:32:49;101536.97;;;9.66;88.44
71504;BME280;59323;50.874;7.028;2023-01-06T06:35:15;101541.25;;;9.67;89.06
71504;BME280;59323;50.874;7.028;2023-01-06T06:37:40;101533.44;;;9.66;89.05
71504;BME280;59323;50.874;7.028;2023-01-06T06:40:06;101530.28;;;9.64;88.50
71504;BME280;59323;50.874;7.028;2023-01-06T06:42:31;101537.28;;;9.65;88.84
71504;BME280;59323;50.874;7.028;2023-01-06T06:44:57;101544.66;;;9.64;89.06
71504;BME280;59323;50.874;7.028;2023-01-06T06:47:22;101550.88;;;9.65;89.17
71504;BME280;59323;50.874;7.028;2023-01-06T06:49:47;101542.38;;;9.66;88.71
71504;BME280;59323;50.874;7.028;2023-01-06T06:52:15;101529.50;;;9.63;89.16
71504;BME280;59323;50.874;7.028;2023-01-06T06:54:40;101534.25;;;9.66;89.22
71504;BME280;59323;50.874;7.028;2023-01-06T06:57:06;101527.91;;;9.62;88.97
71504;BME280;59323;50.874;7.028;2023-01-06T06:59:31;101528.25;;;9.61;89.34
71504;BME280;59323;50.874;7.028;2023-01-06T07:01:56;101536.38;;;9.61;89.17
71504;BME280;59323;50.874;7.028;2023-01-06T07:04:22;101532.09;;;9.60;89.33
71504;BME280;59323;50.874;7.028;2023-01-06T07:06:47;101547.34;;;9.64;89.15
71504;BME280;59323;50.874;7.028;2023-01-06T07:09:12;101526.88;;;9.54;88.99
71504;BME280;59323;50.874;7.028;2023-01-06T07:11:38;101529.03;;;9.61;89.36
71504;BME280;59323;50.874;7.028;2023-01-06T07:14:03;101540.34;;;9.63;89.26
71504;BME280;59323;50.874;7.028;2023-01-06T07:16:28;101531.75;;;9.61;88.58
71504;BME280;59323;50.874;7.028;2023-01-06T07:18:54;101523.16;;;9.59;88.40
71504;BME280;59323;50.874;7.028;2023-01-06T07:21:20;101528.59;;;9.59;88.97
71504;BME280;59323;50.874;7.028;2023-01-06T07:23:45;101521.25;;;9.60;89.32
71504;BME280;59323;50.874;7.028;2023-01-06T07:26:11;101522.47;;;9.62;89.28
71504;BME280;59323;50.874;7.028;2023-01-06T07:28:36;101514.69;;;9.61;89.22
71504;BME280;59323;50.874;7.028;2023-01-06T07:31:02;101504.63;;;9.61;89.05
71504;BME280;59323;50.874;7.028;2023-01-06T07:33:27;101508.56;;;9.64;88.88
71504;BME280;59323;50.874;7.028;2023-01-06T07:35:54;101502.47;;;9.67;89.10
71504;BME280;59323;50.874;7.028;2023-01-06T07:38:20;101484.25;;;9.67;88.58
71504;BME280;59323;50.874;7.028;2023-01-06T07:40:46;101491.53;;;9.75;88.33
71504;BME280;59323;50.874;7.028;2023-01-06T07:43:12;101486.31;;;9.70;88.55
71504;BME280;59323;50.874;7.028;2023-01-06T07:45:38;101489.81;;;9.71;88.52
71504;BME280;59323;50.874;7.028;2023-01-06T07:48:03;101491.63;;;9.67;89.59
71504;BME280;59323;50.874;7.028;2023-01-06T07:50:30;101490.59;;;9.71;89.22
71504;BME280;59323;50.874;7.028;2023-01-06T07:52:57;101497.75;;;9.76;89.09
71504;BME280;59323;50.874;7.028;2023-01-06T07:55:23;101495.16;;;9.79;88.68
71504;BME280;59323;50.874;7.028;2023-01-06T07:57:48;101500.91;;;9.78;88.41
71504;BME280;59323;50.874;7.028;2023-01-06T08:00:14;101496.28;;;9.78;89.25
71504;BME280;59323;50.874;7.028;2023-01-06T08:02:39;101504.53;;;9.82;89.06
71504;BME280;59323;50.874;7.028;2023-01-06T08:05:05;101497.53;;;9.81;89.23
71504;BME280;59323;50.874;7.028;2023-01-06T08:07:30;101508.50;;;9.84;88.81
71504;BME280;59323;50.874;7.028;2023-01-06T08:09:56;101504.75;;;9.77;88.80
71504;BME280;59323;50.874;7.028;2023-01-06T08:12:21;101507.69;;;9.84;89.10
71504;BME280;59323;50.874;7.028;2023-01-06T08:14:46;101508.72;;;9.79;89.33
71504;BME280;59323;50.874;7.028;2023-01-06T08:17:12;101523.88;;;9.80;89.51
71504;BME280;59323;50.874;7.028;2023-01-06T08:19:38;101527.84;;;9.83;89.90
71504;BME280;59323;50.874;7.028;2023-01-06T08:22:03;101519.13;;;9.77;89.83
71504;BME280;59323;50.874;7.028;2023-01-06T08:24:29;101529.63;;;9.79;90.19
71504;BME280;59323;50.874;7.028;2023-01-06T08:26:55;101526.94;;;9.79;89.77
71504;BME280;59323;50.874;7.028;2023-01-06T08:29:21;101521.84;;;9.77;90.17
71504;BME280;59323;50.874;7.028;2023-01-06T08:31:46;101531.91;;;9.77;89.86
71504;BME280;59323;50.874;7.028;2023-01-06T08:34:12;101537.78;;;9.79;89.92
71504;BME280;59323;50.874;7.028;2023-01-06T08:36:38;101541.28;;;9.79;89.71
71504;BME280;59323;50.874;7.028;2023-01-06T08:39:06;101544.47;;;9.81;89.42
71504;BME280;59323;50.874;7.028;2023-01-06T08:41:31;101541.19;;;9.76;89.95
71504;BME280;59323;50.874;7.028;2023-01-06T08:43:57;101547.50;;;9.80;90.04
71504;BME280;59323;50.874;7.028;2023-01-06T08:46:22;101551.69;;;9.77;90.30
71504;BME280;59323;50.874;7.028;2023-01-06T08:48:48;101546.28;;;9.77;90.40
71504;BME280;59323;50.874;7.028;2023-01-06T08:51:18;101556.56;;;9.84;89.88
71504;BME280;59323;50.874;7.028;2023-01-06T08:53:45;101547.41;;;9.89;89.70
71504;BME280;59323;50.874;7.028;2023-01-06T08:56:14;101549.31;;;9.88;90.02
71504;BME280;59323;50.874;7.028;2023-01-06T08:59:05;101555.88;;;9.87;90.33
71504;BME280;59323;50.874;7.028;2023-01-06T09:01:33;101555.78;;;9.83;90.26
71504;BME280;59323;50.874;7.028;2023-01-06T09:04:00;101563.47;;;9.94;90.13
71504;BME280;59323;50.874;7.028;2023-01-06T09:06:26;101561.19;;;9.96;89.93
71504;BME280;59323;50.874;7.028;2023-01-06T09:08:52;101563.13;;;9.95;89.54
71504;BME280;59323;50.874;7.028;2023-01-06T09:11:18;101565.72;;;10.04;89.79
71504;BME280;59323;50.874;7.028;2023-01-06T09:13:44;101574.53;;;10.13;88.98
71504;BME280;59323;50.874;7.028;2023-01-06T09:16:10;101569.00;;;10.09;89.49
71504;BME280;59323;50.874;7.028;2023-01-06T09:18:36;101573.41;;;10.14;89.25
71504;BME280;59323;50.874;7.028;2023-01-06T09:21:03;101591.75;;;10.17;89.46
71504;BME280;59323;50.874;7.028;2023-01-06T09:23:29;101564.56;;;10.17;89.51
71504;BME280;59323;50.874;7.028;2023-01-06T09:25:55;101592.22;;;10.31;89.16
71504;BME280;59323;50.874;7.028;2023-01-06T09:28:21;101576.69;;;10.32;88.96
71504;BME280;59323;50.874;7.028;2023-01-06T09:30:46;101583.03;;;10.36;89.62
71504;BME280;59323;50.874;7.028;2023-01-06T09:33:13;101578.41;;;10.36;89.41
71504;BME280;59323;50.874;7.028;2023-01-06T09:35:39;101578.97;;;10.42;89.27
71504;BME280;59323;50.874;7.028;2023-01-06T09:38:04;101579.66;;;10.51;89.35
71504;BME280;59323;50.874;7.028;2023-01-06T09:46:02;101587.31;;;10.61;89.76
71504;BME280;59323;50.874;7.028;2023-01-06T09:48:43;101569.09;;;10.62;89.46
71504;BME280;59323;50.874;7.028;2023-01-06T09:51:15;101584.47;;;10.70;89.90
71504;BME280;59323;50.874;7.028;2023-01-06T09:53:46;101586.34;;;10.82;89.47
71504;BME280;59323;50.874;7.028;2023-01-06T09:56:16;101583.84;;;10.89;88.95
71504;BME280;59323;50.874;7.028;2023-01-06T10:01:24;101583.69;;;10.97;89.38
71504;BME280;59323;50.874;7.028;2023-01-06T10:03:52;101583.88;;;11.04;88.18
71504;BME280;59323;50.874;7.028;2023-01-06T10:17:16;101592.22;;;11.24;87.68
71504;BME280;59323;50.874;7.028;2023-01-06T10:20:18;101588.34;;;11.25;87.65
71504;BME280;59323;50.874;7.028;2023-01-06T10:25:21;101594.16;;;11.23;88.16
71504;BME280;59323;50.874;7.028;2023-01-06T10:30:29;101594.84;;;11.20;89.21
71504;BME280;59323;50.874;7.028;2023-01-06T10:32:57;101605.03;;;11.23;88.99
71504;BME280;59323;50.874;7.028;2023-01-06T10:35:24;101597.22;;;11.22;88.17
71504;BME280;59323;50.874;7.028;2023-01-06T10:37:51;101595.63;;;11.21;88.73
71504;BME280;59323;50.874;7.028;2023-01-06T10:40:20;101604.16;;;11.19;88.89
71504;BME280;59323;50.874;7.028;2023-01-06T10:42:49;101615.38;;;11.18;90.20
71504;BME280;59323;50.874;7.028;2023-01-06T10:45:42;101623.63;;;11.21;92.32
71504;BME280;59323;50.874;7.028;2023-01-06T10:48:37;101618.78;;;11.15;94.20
71504;BME280;59323;50.874;7.028;2023-01-06T10:53:57;101602.03;;;11.00;96.36
71504;BME280;59323;50.874;7.028;2023-01-06T10:56:27;101594.81;;;10.92;97.63
71504;BME280;59323;50.874;7.028;2023-01-06T10:58:56;101603.75;;;10.93;98.31
71504;BME280;59323;50.874;7.028;2023-01-06T11:01:26;101587.69;;;10.88;99.11
71504;BME280;59323;50.874;7.028;2023-01-06T11:04:07;101590.97;;;10.93;97.65
71504;BME280;59323;50.874;7.028;2023-01-06T11:06:34;101597.72;;;10.99;97.07
71504;BME280;59323;50.874;7.028;2023-01-06T11:09:20;101597.28;;;11.09;94.19
71504;BME280;59323;50.874;7.028;2023-01-06T11:11:48;101593.31;;;11.07;94.36
71504;BME280;59323;50.874;7.028;2023-01-06T11:14:18;101594.66;;;11.13;94.43
71504;BME280;59323;50.874;7.028;2023-01-06T11:17:14;101592.47;;;11.19;93.97
71504;BME280;59323;50.874;7.028;2023-01-06T11:19:44;101595.28;;;11.22;93.09
71504;BME280;59323;50.874;7.028;2023-01-06T11:24:54;101589.00;;;11.34;93.12
71504;BME280;59323;50.874;7.028;2023-01-06T11:27:19;101582.06;;;11.36;92.33
71504;BME280;59323;50.874;7.028;2023-01-06T11:29:45;101585.31;;;11.42;92.79
71504;BME280;59323;50.874;7.028;2023-01-06T11:32:19;101577.94;;;11.42;92.04
71504;BME280;59323;50.874;7.028;2023-01-06T11:35:00;101574.19;;;11.47;92.45
71504;BME280;59323;50.874;7.028;2023-01-06T11:37:34;101578.31;;;11.57;92.14
71504;BME280;59323;50.874;7.028;2023-01-06T11:40:03;101595.00;;;11.55;91.73
71504;BME280;59323;50.874;7.028;2023-01-06T11:42:37;101590.69;;;11.54;92.22
71504;BME280;59323;50.874;7.028;2023-01-06T11:45:04;101585.59;;;11.53;93.86
71504;BME280;59323;50.874;7.028;2023-01-06T11:47:29;101588.03;;;11.42;95.17
71504;BME280;59323;50.874;7.028;2023-01-06T11:49:57;101584.09;;;11.39;95.13
71504;BME280;59323;50.874;7.028;2023-01-06T11:52:27;101583.44;;;11.30;95.57
71504;BME280;59323;50.874;7.028;2023-01-06T11:57:44;101573.69;;;11.14;97.67
71504;BME280;59323;50.874;7.028;2023-01-06T12:00:36;101581.84;;;11.14;98.97
71504;BME280;59323;50.874;7.028;2023-01-06T12:08:34;101576.06;;;11.03;100.00
71504;BME280;59323;50.874;7.028;2023-01-06T12:11:09;101574.16;;;11.03;100.00
71504;BME280;59323;50.874;7.028;2023-01-06T12:13:37;101580.50;;;11.07;100.00
71504;BME280;59323;50.874;7.028;2023-01-06T12:16:06;101570.28;;;11.04;100.00
71504;BME280;59323;50.874;7.028;2023-01-06T12:18:41;101573.69;;;11.14;100.00
71504;BME280;59323;50.874;7.028;2023-01-06T12:21:14;101571.66;;;11.10;100.00
71504;BME280;59323;50.874;7.028;2023-01-06T12:23:43;101579.81;;;11.10;100.00
71504;BME280;59323;50.874;7.028;2023-01-06T12:26:16;101571.56;;;11.07;100.00
71504;BME280;59323;50.874;7.028;2023-01-06T12:28:45;101569.50;;;11.04;100.00
71504;BME280;59323;50.874;7.028;2023-01-06T12:31:44;101585.78;;;11.16;100.00
71504;BME280;59323;50.874;7.028;2023-01-06T12:34:22;101582.19;;;11.12;100.00
71504;BME280;59323;50.874;7.028;2023-01-06T12:37:14;101566.25;;;10.98;100.00
71504;BME280;59323;50.874;7.028;2023-01-06T12:42:42;101567.38;;;10.97;100.00
71504;BME280;59323;50.874;7.028;2023-01-06T12:47:38;101570.53;;;10.99;100.00
71504;BME280;59323;50.874;7.028;2023-01-06T12:50:14;101565.09;;;10.99;100.00
71504;BME280;59323;50.874;7.028;2023-01-06T12:52:46;101562.47;;;11.03;100.00
71504;BME280;59323;50.874;7.028;2023-01-06T12:55:19;101564.53;;;11.06;100.00
71504;BME280;59323;50.874;7.028;2023-01-06T13:13:54;101576.41;;;11.14;100.00
71504;BME280;59323;50.874;7.028;2023-01-06T13:16:48;101570.41;;;11.08;100.00
71504;BME280;59323;50.874;7.028;2023-01-06T13:36:42;101561.03;;;11.05;100.00
71504;BME280;59323;50.874;7.028;2023-01-06T13:39:19;101550.00;;;11.02;100.00
71504;BME280;59323;50.874;7.028;2023-01-06T13:41:52;101555.09;;;11.03;100.00
71504;BME280;59323;50.874;7.028;2023-01-06T13:44:22;101558.41;;;11.09;100.00
71504;BME280;59323;50.874;7.028;2023-01-06T13:46:51;101554.19;;;11.11;99.06
71504;BME280;59323;50.874;7.028;2023-01-06T13:49:18;101557.81;;;11.16;98.07
71504;BME280;59323;50.874;7.028;2023-01-06T13:51:43;101566.66;;;11.13;97.75
71504;BME280;59323;50.874;7.028;2023-01-06T14:04:58;101552.03;;;11.05;100.00
71504;BME280;59323;50.874;7.028;2023-01-06T14:07:37;101543.44;;;11.03;100.00
71504;BME280;59323;50.874;7.028;2023-01-06T14:12:59;101546.41;;;10.98;100.00
71504;BME280;59323;50.874;7.028;2023-01-06T14:15:31;101539.75;;;10.95;100.00
71504;BME280;59323;50.874;7.028;2023-01-06T14:17:58;101548.34;;;10.97;100.00
71504;BME280;59323;50.874;7.028;2023-01-06T14:20:29;101558.09;;;10.98;100.00
71504;BME280;59323;50.874;7.028;2023-01-06T14:23:17;101549.72;;;10.91;100.00
71504;BME280;59323;50.874;7.028;2023-01-06T14:25:49;101553.78;;;10.97;100.00
71504;BME280;59323;50.874;7.028;2023-01-06T14:30:44;101551.75;;;10.94;100.00
71504;BME280;59323;50.874;7.028;2023-01-06T14:33:34;101555.81;;;11.00;99.30
71504;BME280;59323;50.874;7.028;2023-01-06T14:38:48;101554.56;;;10.98;98.78
71504;BME280;59323;50.874;7.028;2023-01-06T14:41:26;101542.00;;;10.93;99.22
71504;BME280;59323;50.874;7.028;2023-01-06T14:43:55;101540.44;;;10.92;98.95
71504;BME280;59323;50.874;7.028;2023-01-06T14:47:10;101538.84;;;10.91;98.88
71504;BME280;59323;50.874;7.028;2023-01-06T14:49:23;101549.22;;;11.01;98.33
71504;BME280;59323;50.874;7.028;2023-01-06T14:51:53;101553.09;;;11.00;98.34
71504;BME280;59323;50.874;7.028;2023-01-06T14:54:28;101546.66;;;10.93;98.20
71504;BME280;59323;50.874;7.028;2023-01-06T14:56:58;101548.16;;;10.90;98.29
71504;BME280;59323;50.874;7.028;2023-01-06T14:59:26;101551.31;;;10.92;98.26
71504;BME280;59323;50.874;7.028;2023-01-06T15:02:12;101556.75;;;10.92;98.60
71504;BME280;59323;50.874;7.028;2023-01-06T15:04:42;101552.69;;;10.86;98.52
71504;BME280;59323;50.874;7.028;2023-01-06T15:09:42;101564.47;;;10.90;98.87
71504;BME280;59323;50.874;7.028;2023-01-06T15:12:29;101562.97;;;10.93;98.49
71504;BME280;59323;50.874;7.028;2023-01-06T15:14:55;101563.31;;;10.91;98.60
71504;BME280;59323;50.874;7.028;2023-01-06T15:17:21;101560.94;;;10.90;99.18
71504;BME280;59323;50.874;7.028;2023-01-06T15:19:48;101560.41;;;10.84;100.00
71504;BME280;59323;50.874;7.028;2023-01-06T15:22:23;101563.03;;;10.80;100.00
71504;BME280;59323;50.874;7.028;2023-01-06T15:24:49;101567.31;;;10.82;100.00